Viper, Kentucky
Current Conditions -  °F | °C
As of 6:55 AM on Monday 24 Nov 2014 (Local Time) from KI35 Reporting Station
Overcast Overcast  
Wind Chill: 61°   Ceiling: 3300
Heat Index: 61°   Visibility: 10mi
Dew Point: 48°   Wind: 6mph
Humidity: 63%   Direction: 180°S
Pressure: 29.6"   Gusts: 28mph
Location:  37.18°N, 83.15°W
Report Text: KI35 241155Z AUTO 18005G24KT 10SM OVC033 16/09 A2960 RMK AO1
Loading
Personal Weather Stations






























Interactive Weather Map New forecast layout! Learn more

10-Day Weather Forecast

Advertisements
Track Severe Weather on mobile